.
WxDataArchive / Data Records for 2006-08-05
2006-08-04 August 2006 2006-08-06

Data Records for Saturday, 05 August 2006

Time	Temp	Chill	HIndex	Humid	Dewpt	 Wind 	HiWind	WindDir	Rain 	Barom 
-----	----	-----	------	-----	-----	------	------	-------	-----	----- 
00:00	70.1	70.1	70.1	78	62.9	0	0	---	0.00	30.045 
00:05	69.9	69.9	69.9	78	62.7	0	0	---	0.00	30.045 
00:10	69.8	69.8	69.8	79	63.0	0	0	---	0.00	30.045 
00:15	69.6	69.6	69.6	79	62.8	0	0	---	0.00	30.044 
00:20	69.3	69.3	69.3	79	62.5	0	0	---	0.00	30.044 
00:25	69.1	69.1	69.1	80	62.7	0	0	---	0.00	30.044 
00:30	68.9	68.9	68.9	80	62.5	0	0	---	0.00	30.043 
00:35	68.8	68.8	68.8	81	62.7	0	0	---	0.00	30.043 
00:40	68.8	68.8	68.8	81	62.7	0	0	---	0.00	30.043 
00:45	68.6	68.6	68.6	81	62.5	0	0	---	0.00	30.042 
00:50	68.4	68.4	68.4	81	62.3	0	0	---	0.00	30.042 
00:55	68.4	68.4	68.4	81	62.3	0	0	---	0.00	30.042 
01:00	68.3	68.3	68.3	81	62.2	0	0	---	0.00	30.044 
01:05	68.1	68.1	68.1	82	62.4	0	0	---	0.00	30.044 
01:10	68.1	68.1	68.1	82	62.4	0	0	---	0.00	30.044 
01:15	68.1	68.1	68.1	83	62.7	0	0	---	0.00	30.045 
01:20	67.9	67.9	67.9	83	62.5	0	0	---	0.00	30.045 
01:25	67.9	67.9	67.9	84	62.9	0	0	---	0.00	30.045 
01:30	67.8	67.8	67.8	85	63.1	0	0	---	0.00	30.045 
01:35	67.6	67.6	67.6	85	62.9	0	0	---	0.00	30.045 
01:40	67.4	67.4	67.4	86	63.1	0	0	---	0.00	30.045 
01:45	67.3	67.3	67.3	86	63.0	0	0	---	0.00	30.041 
01:50	67.1	67.1	67.1	87	63.1	0	0	---	0.00	30.041 
01:55	66.9	66.9	66.9	87	62.9	0	0	---	0.00	30.041 
02:00	66.8	66.8	66.8	87	62.8	0	0	---	0.00	30.038 
02:05	66.8	66.8	66.8	87	62.8	0	0	---	0.00	30.038 
02:10	66.6	66.6	66.6	87	62.6	0	0	---	0.00	30.038 
02:15	66.4	66.4	66.4	88	62.7	0	0	---	0.00	30.039 
02:20	66.4	66.4	66.4	88	62.7	0	0	---	0.00	30.039 
02:25	66.3	66.3	66.3	89	63.0	0	0	---	0.00	30.039 
02:30	66.3	66.3	66.3	89	63.0	0	0	---	0.00	30.040 
02:35	66.1	66.1	66.1	89	62.8	0	0	---	0.00	30.040 
02:40	66.1	66.1	66.1	89	62.8	0	0	---	0.00	30.040 
02:45	66.0	66.0	66.0	90	63.0	0	0	---	0.00	30.044 
02:50	66.0	66.0	66.0	90	63.0	0	0	---	0.00	30.044 
02:55	66.0	66.0	66.0	90	63.0	0	0	---	0.00	30.044 
03:00	65.8	65.8	65.8	90	62.8	0	0	---	0.00	30.045 
03:05	65.8	65.8	65.8	90	62.8	0	0	---	0.00	30.045 
03:10	65.6	65.6	65.6	91	62.9	0	0	---	0.00	30.045 
03:15	65.6	65.6	65.6	91	62.9	0	0	---	0.00	30.042 
03:20	65.5	65.5	65.5	91	62.8	0	0	---	0.00	30.042 
03:25	65.5	65.5	65.5	91	62.8	0	0	---	0.00	30.042 
03:30	65.5	65.5	65.5	91	62.8	0	0	---	0.00	30.045 
03:35	65.3	65.3	65.3	91	62.6	0	0	---	0.00	30.045 
03:40	65.5	65.5	65.5	92	63.1	0	0	---	0.00	30.045 
03:45	65.3	65.3	65.3	92	62.9	0	0	---	0.00	30.044 
03:50	65.3	65.3	65.3	92	62.9	0	0	---	0.00	30.044 
03:55	65.3	65.3	65.3	92	62.9	0	0	---	0.00	30.044 
04:00	65.2	65.2	65.2	92	62.8	0	0	---	0.00	30.045 
04:05	65.2	65.2	65.2	92	62.8	0	0	---	0.00	30.045 
04:10	65.2	65.2	65.2	92	62.8	0	0	---	0.00	30.045 
04:15	65.0	65.0	65.0	92	62.6	0	0	---	0.00	30.046 
04:20	65.0	65.0	65.0	92	62.6	0	0	---	0.00	30.046 
04:25	65.0	65.0	65.0	93	62.9	0	0	---	0.00	30.046 
04:30	65.0	65.0	65.0	93	62.9	0	0	---	0.00	30.045 
04:35	65.0	65.0	65.0	93	62.9	0	0	---	0.00	30.045 
04:40	64.8	64.8	64.8	93	62.7	0	0	---	0.00	30.045 
04:45	64.8	64.8	64.8	93	62.7	0	0	---	0.00	30.042 
04:50	64.8	64.8	64.8	93	62.7	0	0	---	0.00	30.042 
04:55	64.8	64.8	64.8	93	62.7	0	0	---	0.00	30.042 
05:00	64.7	64.7	64.7	93	62.6	0	0	---	0.00	30.047 
05:05	64.7	64.7	64.7	94	62.9	0	0	---	0.00	30.047 
05:10	64.7	64.7	64.7	94	62.9	0	0	---	0.00	30.047 
05:15	64.7	64.7	64.7	94	62.9	0	0	---	0.00	30.049 
05:20	64.8	64.8	64.8	94	63.0	0	0	---	0.00	30.049 
05:25	64.8	64.8	64.8	94	63.0	0	0	---	0.00	30.049 
05:30	64.8	64.8	64.8	95	63.3	0	0	---	0.00	30.049 
05:35	65.0	65.0	65.0	95	63.5	0	0	---	0.00	30.049 
05:40	64.8	64.8	64.8	95	63.3	0	0	---	0.00	30.049 
05:45	64.8	64.8	64.8	94	63.0	0	0	---	0.00	30.056 
05:50	64.8	64.8	64.8	94	63.0	0	0	---	0.00	30.056 
05:55	64.8	64.8	64.8	95	63.3	0	0	---	0.00	30.056 
06:00	64.8	64.8	64.8	94	63.0	0	0	---	0.00	30.059 
06:05	64.8	64.8	64.8	94	63.0	0	1	45	0.00	30.059 
06:10	65.0	65.0	65.0	94	63.2	0	1	45	0.00	30.059 
06:15	65.2	65.2	65.2	94	63.4	0	0	---	0.00	30.065 
06:20	65.2	65.2	65.2	94	63.4	0	0	---	0.00	30.065 
06:25	65.2	65.2	65.2	94	63.4	0	2	45	0.00	30.065 
06:30	65.2	65.2	65.2	94	63.4	0	0	---	0.00	30.066 
06:35	65.3	65.3	65.3	94	63.5	0	1	45	0.00	30.066 
06:40	65.5	65.5	65.5	94	63.7	0	1	45	0.00	30.066 
06:45	65.6	65.6	65.6	93	63.5	0	1	45	0.00	30.068 
06:50	65.8	65.8	65.8	93	63.7	0	1	45	0.00	30.068 
06:55	65.8	65.8	65.8	93	63.7	0	1	45	0.00	30.068 
07:00	66.0	66.0	66.0	93	63.9	0	1	45	0.00	30.071 
07:05	66.0	66.0	66.0	92	63.6	0	0	---	0.00	30.071 
07:10	66.0	66.0	66.0	92	63.6	0	1	45	0.00	30.071 
07:15	66.0	66.0	66.0	92	63.6	0	2	45	0.00	30.078 
07:20	66.1	66.1	66.1	92	63.7	0	1	45	0.00	30.078 
07:25	66.4	66.4	66.4	91	63.7	1	2	45	0.00	30.078 
07:30	66.9	66.9	66.9	90	63.9	1	3	45	0.00	30.079 
07:35	67.3	67.3	67.3	88	63.6	1	3	90	0.00	30.079 
07:40	67.6	67.6	67.6	87	63.6	1	4	90	0.00	30.079 
07:45	67.9	67.9	67.9	87	63.9	1	4	90	0.00	30.086 
07:50	68.3	68.3	68.3	86	63.9	1	4	112	0.00	30.086 
07:55	68.6	68.6	68.6	85	63.9	1	4	112	0.00	30.086 
08:00	68.8	68.8	68.8	84	63.8	2	5	90	0.00	30.088 
08:05	68.6	68.6	68.6	84	63.6	3	5	90	0.00	30.088 
08:10	68.8	68.8	68.8	84	63.8	3	5	90	0.00	30.088 
08:15	69.1	69.1	69.1	84	64.1	2	5	112	0.00	30.089 
08:20	69.4	69.4	69.4	83	64.0	2	5	90	0.00	30.089 
08:25	69.8	69.8	69.8	84	64.7	1	4	90	0.00	30.089 
08:30	70.3	70.3	70.3	82	64.5	2	4	90	0.00	30.093 
08:35	70.6	70.6	70.6	82	64.8	2	4	90	0.00	30.093 
08:40	70.8	70.8	70.8	82	65.0	2	5	90	0.00	30.093 
08:45	71.3	71.3	71.3	80	64.8	2	4	90	0.00	30.095 
08:50	71.6	71.6	71.6	79	64.7	2	5	90	0.00	30.095 
08:55	71.8	71.8	71.8	80	65.3	2	5	68	0.00	30.095 
09:00	72.1	72.1	72.1	79	65.2	2	3	112	0.00	30.096 
09:05	72.7	72.7	72.7	78	65.4	2	3	112	0.00	30.096 
09:10	72.7	72.7	72.7	78	65.4	2	5	90	0.00	30.096 
09:15	73.0	73.0	73.0	77	65.3	1	4	90	0.00	30.098 
09:20	73.2	73.2	73.2	77	65.5	2	5	90	0.00	30.098 
09:25	73.7	73.7	73.7	77	66.0	1	3	90	0.00	30.098 
09:30	73.9	73.9	73.9	76	65.8	2	8	90	0.00	30.099 
09:35	74.0	74.0	74.0	77	66.3	2	9	90	0.00	30.099 
09:40	74.0	74.0	74.0	78	66.7	2	5	112	0.00	30.099 
09:45	74.4	74.4	74.4	77	66.7	2	4	90	0.00	30.097 
09:50	75.1	75.1	76.2	76	67.0	1	4	90	0.00	30.097 
09:55	75.3	75.3	76.5	75	66.8	2	4	90	0.00	30.097 
10:00	75.6	75.6	76.8	76	67.5	2	4	90	0.00	30.094 
10:05	76.0	76.0	77.4	75	67.5	2	6	68	0.00	30.094 
10:10	75.6	75.6	76.8	76	67.5	2	4	90	0.00	30.094 
10:15	76.1	76.1	77.4	76	68.0	2	4	112	0.00	30.087 
10:20	76.7	76.7	78.3	75	68.2	2	5	90	0.00	30.087 
10:25	77.2	77.2	79.0	74	68.3	3	7	90	0.00	30.087 
10:30	77.7	77.7	79.7	73	68.3	2	3	90	0.00	30.082 
10:35	77.9	77.9	79.9	72	68.1	3	7	90	0.00	30.082 
10:40	78.1	78.1	80.2	71	67.9	2	4	90	0.00	30.082 
10:45	78.3	78.3	80.5	72	68.5	3	6	90	0.00	30.090 
10:50	78.5	78.5	80.7	70	67.9	3	6	90	0.00	30.090 
10:55	78.6	78.6	80.9	71	68.4	2	6	90	0.00	30.090 
11:00	79.2	79.2	81.7	70	68.5	3	5	112	0.00	30.092 
11:05	79.4	79.4	81.8	68	67.9	3	5	90	0.00	30.092 
11:10	79.8	79.8	82.5	69	68.7	2	5	90	0.00	30.092 
11:15	80.1	80.1	82.7	67	68.1	2	6	112	0.00	30.093 
11:20	80.7	80.7	84.0	69	69.6	1	4	90	0.00	30.093 
11:25	80.9	80.9	83.7	65	68.0	3	6	90	0.00	30.093 
11:30	81.1	81.1	84.3	67	69.1	2	4	112	0.00	30.093 
11:35	81.1	81.1	84.1	66	68.6	2	6	90	0.00	30.093 
11:40	81.2	81.2	84.1	65	68.3	2	5	90	0.00	30.093 
11:45	81.8	81.8	84.9	64	68.4	2	5	90	0.00	30.091 
11:50	81.6	81.6	84.2	62	67.3	3	9	90	0.00	30.091 
11:55	81.8	81.8	84.5	62	67.5	2	9	90	0.00	30.091 
12:00	81.8	81.8	84.1	60	66.5	3	6	112	0.00	30.088 
12:05	82.0	82.0	84.2	59	66.2	2	7	112	0.00	30.088 
12:10	82.4	82.4	84.8	59	66.6	3	6	90	0.00	30.088 
12:15	82.8	82.8	85.4	59	67.0	2	6	112	0.00	30.088 
12:20	83.0	83.0	85.3	57	66.2	2	6	90	0.00	30.088 
12:25	82.6	82.6	84.3	55	64.8	3	6	90	0.00	30.088 
12:30	82.8	82.8	84.6	55	65.0	3	5	90	0.00	30.085 
12:35	83.2	83.2	85.1	55	65.3	2	5	90	0.00	30.085 
12:40	83.8	83.8	86.2	56	66.4	2	7	90	0.00	30.085 
12:45	84.1	84.1	86.9	57	67.2	2	5	90	0.00	30.081 
12:50	84.0	84.0	86.0	54	65.5	3	7	90	0.00	30.081 
12:55	83.6	83.6	86.4	58	67.2	2	5	90	0.00	30.081 
13:00	83.4	83.4	85.4	55	65.5	2	5	90	0.00	30.084 
13:05	83.2	83.2	85.3	56	65.8	3	6	90	0.00	30.084 
13:10	83.6	83.6	85.0	52	64.1	2	5	112	0.00	30.084 
13:15	83.4	83.4	85.6	56	66.0	2	4	90	0.00	30.083 
13:20	83.0	83.0	84.7	54	64.6	1	4	90	0.00	30.083 
13:25	82.6	82.6	84.5	56	65.3	2	5	90	0.00	30.083 
13:30	82.4	82.4	84.6	58	66.1	2	4	90	0.00	30.085 
13:35	83.2	83.2	84.9	54	64.8	2	6	90	0.00	30.085 
13:40	83.4	83.4	85.2	54	65.0	2	5	90	0.00	30.085 
13:45	84.0	84.0	86.0	54	65.5	2	5	90	0.00	30.082 
13:50	84.3	84.3	86.7	55	66.3	2	5	90	0.00	30.082 
13:55	84.7	84.7	86.8	53	65.6	2	5	112	0.00	30.082 
14:00	85.1	85.1	87.4	53	66.0	2	6	90	0.00	30.078 
14:05	85.1	85.1	87.1	52	65.5	2	5	90	0.00	30.078 
14:10	84.9	84.9	87.1	53	65.8	3	6	112	0.00	30.078 
14:15	84.7	84.7	86.5	52	65.1	2	5	90	0.00	30.074 
14:20	84.7	84.7	86.8	53	65.6	1	5	90	0.00	30.074 
14:25	84.5	84.5	86.3	52	64.9	3	6	90	0.00	30.074 
14:30	84.3	84.3	85.7	51	64.2	1	4	90	0.00	30.072 
14:35	84.7	84.7	86.5	52	65.1	2	5	90	0.00	30.072 
14:40	84.5	84.5	85.8	50	63.8	1	5	90	0.00	30.072 
14:45	84.5	84.5	86.0	51	64.4	2	5	112	0.00	30.069 
14:50	84.7	84.7	86.5	52	65.1	1	3	112	0.00	30.069 
14:55	84.7	84.7	85.8	49	63.4	3	6	112	0.00	30.069 
15:00	84.1	84.1	85.0	49	62.8	3	5	90	0.00	30.063 
15:05	83.6	83.6	84.8	51	63.5	3	6	90	0.00	30.063 
15:10	83.6	83.6	84.8	51	63.5	2	6	68	0.00	30.063 
15:15	83.8	83.8	85.3	52	64.3	3	4	112	0.00	30.063 
15:20	84.5	84.5	86.0	51	64.4	2	5	90	0.00	30.063 
15:25	84.9	84.9	86.3	50	64.2	2	6	45	0.00	30.063 
15:30	84.7	84.7	85.8	49	63.4	2	6	90	0.00	30.056 
15:35	84.5	84.5	85.6	49	63.2	2	6	90	0.00	30.056 
15:40	84.5	84.5	85.3	48	62.6	1	4	90	0.00	30.056 
15:45	84.3	84.3	85.7	51	64.2	1	4	90	0.00	30.061 
15:50	84.0	84.0	84.9	49	62.8	3	7	90	0.00	30.061 
15:55	83.8	83.8	84.5	48	62.0	2	4	90	0.00	30.061 
16:00	84.1	84.1	85.3	50	63.4	1	5	90	0.00	30.052 
16:05	84.5	84.5	85.6	49	63.2	1	4	112	0.00	30.052 
16:10	84.5	84.5	85.8	50	63.8	3	9	90	0.00	30.052 
16:15	84.5	84.5	85.8	50	63.8	3	6	90	0.00	30.048 
16:20	84.3	84.3	85.5	50	63.6	3	6	90	0.00	30.048 
16:25	83.6	83.6	84.6	50	63.0	3	7	90	0.00	30.048 
16:30	83.4	83.4	85.2	54	65.0	2	5	90	0.00	30.047 
16:35	83.2	83.2	84.3	51	63.2	2	5	90	0.00	30.047 
16:40	83.2	83.2	84.7	53	64.3	2	5	112	0.00	30.047 
16:45	83.2	83.2	84.9	54	64.8	2	3	90	0.00	30.048 
16:50	83.2	83.2	84.5	52	63.7	3	6	90	0.00	30.048 
16:55	83.2	83.2	84.7	53	64.3	3	6	90	0.00	30.048 
17:00	83.0	83.0	84.9	55	65.1	2	5	90	0.00	30.042 
17:05	83.2	83.2	84.5	52	63.7	3	6	90	0.00	30.042 
17:10	83.8	83.8	85.3	52	64.3	3	6	90	0.00	30.042 
17:15	84.3	84.3	86.0	52	64.7	2	5	90	0.00	30.041 
17:20	84.3	84.3	86.0	52	64.7	3	6	90	0.00	30.041 
17:25	84.0	84.0	86.0	54	65.5	3	6	90	0.00	30.041 
17:30	83.4	83.4	85.0	53	64.4	2	4	90	0.00	30.034 
17:35	82.8	82.8	84.2	53	63.9	3	7	90	0.00	30.034 
17:40	82.6	82.6	83.8	52	63.2	3	7	90	0.00	30.034 
17:45	82.4	82.4	83.9	54	64.1	2	4	90	0.00	30.037 
17:50	82.4	82.4	84.1	55	64.6	2	5	90	0.00	30.037 
17:55	82.2	82.2	83.8	55	64.4	2	4	90	0.00	30.037 
18:00	82.2	82.2	83.6	54	63.9	2	7	90	0.00	30.035 
18:05	82.0	82.0	83.4	54	63.7	3	5	90	0.00	30.035 
18:10	81.8	81.8	83.3	55	64.0	2	4	90	0.00	30.035 
18:15	81.8	81.8	83.3	55	64.0	2	5	90	0.00	30.034 
18:20	81.8	81.8	83.3	55	64.0	2	8	90	0.00	30.034 
18:25	81.8	81.8	83.6	57	65.0	2	4	90	0.00	30.034 
18:30	82.0	82.0	84.1	58	65.7	2	6	90	0.00	30.032 
18:35	81.8	81.8	83.8	58	65.6	2	7	112	0.00	30.032 
18:40	81.4	81.4	83.4	59	65.7	2	6	90	0.00	30.032 
18:45	81.2	81.2	83.3	60	66.0	1	4	90	0.00	30.034 
18:50	81.1	81.1	83.3	61	66.4	2	4	90	0.00	30.034 
18:55	80.9	80.9	83.1	61	66.2	2	4	90	0.00	30.034 
19:00	80.9	80.9	83.1	61	66.2	1	3	112	0.00	30.032 
19:05	80.7	80.7	82.9	62	66.4	1	3	112	0.00	30.032 
19:10	80.7	80.7	83.1	63	66.9	1	2	90	0.00	30.032 
19:15	80.5	80.5	82.9	64	67.2	1	3	90	0.00	30.030 
19:20	80.3	80.3	82.4	62	66.1	2	4	90	0.00	30.030 
19:25	80.3	80.3	82.7	64	67.0	0	2	90	0.00	30.030 
19:30	80.3	80.3	82.8	65	67.4	1	3	90	0.00	30.030 
19:35	80.1	80.1	82.4	64	66.8	1	3	68	0.00	30.030 
19:40	79.9	79.9	82.1	64	66.6	2	4	90	0.00	30.030 
19:45	79.8	79.8	82.1	65	67.0	1	3	90	0.00	30.030 
19:50	79.8	79.8	82.2	66	67.4	0	2	90	0.00	30.030 
19:55	79.8	79.8	82.1	65	67.0	1	3	90	0.00	30.030 
20:00	79.6	79.6	81.8	65	66.8	1	3	90	0.00	30.027 
20:05	79.4	79.4	81.6	65	66.6	2	5	112	0.00	30.027 
20:10	79.2	79.2	81.4	66	66.8	1	3	112	0.00	30.027 
20:15	79.0	79.0	81.1	66	66.6	0	2	112	0.00	30.023 
20:20	78.8	78.8	80.9	66	66.5	1	3	112	0.00	30.023 
20:25	78.6	78.6	80.7	67	66.7	1	4	112	0.00	30.023 
20:30	78.5	78.5	80.5	67	66.6	1	2	90	0.00	30.023 
20:35	78.3	78.3	80.3	68	66.8	1	3	90	0.00	30.023 
20:40	78.1	78.1	80.1	68	66.7	0	1	90	0.00	30.023 
20:45	77.9	77.9	79.8	68	66.5	1	3	68	0.00	30.016 
20:50	77.7	77.7	79.6	69	66.7	1	4	90	0.00	30.016 
20:55	77.6	77.6	79.5	69	66.6	1	3	90	0.00	30.016 
21:00	77.2	77.2	79.0	70	66.6	1	2	90	0.00	30.019 
21:05	77.0	77.0	78.8	71	66.9	1	3	90	0.00	30.019 
21:10	76.8	76.8	78.5	72	67.1	1	3	90	0.00	30.019 
21:15	76.7	76.7	78.4	72	67.0	1	4	112	0.00	30.017 
21:20	76.3	76.3	77.8	73	67.0	1	3	112	0.00	30.017 
21:25	76.1	76.1	77.6	73	66.8	0	2	112	0.00	30.017 
21:30	75.8	75.8	77.2	74	66.9	0	1	112	0.00	30.019 
21:35	75.4	75.4	76.7	74	66.5	1	2	68	0.00	30.019 
21:40	75.3	75.3	76.7	73	66.0	1	4	68	0.00	30.019 
21:45	74.9	74.9	74.9	73	65.6	1	5	112	0.00	30.024 
21:50	74.7	74.7	74.7	73	65.5	2	4	45	0.00	30.024 
21:55	74.4	74.4	74.4	74	65.6	1	6	112	0.00	30.024 
22:00	74.0	74.0	74.0	75	65.6	2	4	90	0.00	30.030 
22:05	73.9	73.9	73.9	75	65.5	2	4	90	0.00	30.030 
22:10	73.7	73.7	73.7	75	65.3	3	5	90	0.00	30.030 
22:15	73.3	73.3	73.3	75	64.9	2	5	90	0.00	30.031 
22:20	73.2	73.2	73.2	75	64.8	2	5	90	0.00	30.031 
22:25	73.2	73.2	73.2	74	64.4	1	4	90	0.00	30.031 
22:30	73.0	73.0	73.0	74	64.2	2	5	112	0.00	30.037 
22:35	72.8	72.8	72.8	74	64.0	2	5	90	0.00	30.037 
22:40	72.7	72.7	72.7	73	63.5	1	4	90	0.00	30.037 
22:45	72.7	72.7	72.7	73	63.5	2	6	90	0.00	30.043 
22:50	72.5	72.5	72.5	73	63.3	2	4	112	0.00	30.043 
22:55	72.3	72.3	72.3	73	63.1	1	3	90	0.00	30.043 
23:00	72.1	72.1	72.1	73	63.0	2	4	112	0.00	30.050 
23:05	72.0	72.0	72.0	73	62.9	2	5	90	0.00	30.050 
23:10	71.8	71.8	71.8	73	62.7	2	4	90	0.00	30.050 
23:15	71.6	71.6	71.6	73	62.5	2	5	90	0.00	30.045 
23:20	71.5	71.5	71.5	74	62.8	2	5	90	0.00	30.045 
23:25	71.3	71.3	71.3	74	62.6	2	4	68	0.00	30.045 
23:30	71.1	71.1	71.1	74	62.4	1	3	90	0.00	30.050 
23:35	70.9	70.9	70.9	75	62.6	1	3	90	0.00	30.050 
23:40	70.8	70.8	70.8	76	62.8	1	3	90	0.00	30.050 
23:45	70.6	70.6	70.6	76	62.7	2	3	112	0.00	30.059 
23:50	70.4	70.4	70.4	76	62.5	2	4	68	0.00	30.059 
23:55	70.3	70.3	70.3	76	62.4	1	2	68	0.00	30.059 

CoCoRaHS
IN-AL-39
A2 Web Hosting
Creative Commons License
GoDaddy
Look for:

loaded 2017-12-13 19:41:25 • last modified 2010-11-18 10:43:29
Privacy PolicyDisclaimer
• wx.awcolley.com is powered by PmWiki v.2002016 •
• all content (unless otherwise noted) © 2017 A W Colley